Sunday, March 29, 2015
16:08 UTC
  |  Log In   |  Register Free
Airport Search:

Lincoln Airport
(KLNK)

FAA data valid effective March 05, 2015 - April 30, 2015 (unless otherwise noted).

 
 
 
 
 
 
 
 
 
 
 
 
 
 

Current Aviation Weather for Lincoln Airport (KLNK)

The most recent METAR observation for KLNK was updated at: 1411
METAR Summary (Translated METAR)
KLNK
251354Z 28004KT 4SM BR BKN013 OVC075 04/03 A3007 RMK AO2 RAB17E27 SLP191 P0000 T00440033
KAHQ
251355Z AUTO 35013G17KT 10SM BKN075 OVC080 05/02 A3006 RMK AO2 T00450017
(24.6 nm NE from KLNK)
KBIE
251355Z AUTO 35009KT 3SM BR OVC002 04/04 A3003 RMK AO2 T00360036
(33 nm SE from KLNK)
TAF Summary (Translated TAF)
KLNK
251240Z 2513/2612 32012KT 6SM BR FEW004 BKN015 OVC100 TEMPO 2513/2515 -RA FM251500 35015G22KT P6SM BKN080 FM260000 36008KT P6SM SCT150
  Airport Weather Conditions for KLNK

 Current Weather at LNK
57° F
Fair
Northwest winds at 10.4 mph
LNK NOAA Radar

Pressure: 29.97 in
Humidity: 49%
Wind: Northwest at 10.4 MPH (9 KT)
Dew Point: 37.9°F
Visibility: 9.00 mi


Airport Weather Forecast for KLNK

Translated METAR and TAF for KLNK
Translated METAR for KLNK (1607 UTC 29 March 2015)
found at http://aviationweather.gov/adds/metars/
 
METAR text: KLNK 291554Z 31024G36KT 10SM FEW050 16/02 A2999 RMK AO2 PK WND 31036/1551 SLP154 T01610022
Conditions at: KLNK (LINCOLN , NE, US) observed 1554 UTC 29 March 2015
Temperature: 16.1°C (61°F)
Dewpoint: 2.2°C (36°F) [RH = 39%]
Pressure (altimeter): 29.99 inches Hg (1015.7 mb)
[Sea-level pressure: 1015.4 mb]
Winds: from the NW (310 degrees) at 28 MPH (24 knots; 12.5 m/s)
gusting to 41 MPH (36 knots; 18.7 m/s)
Visibility: 10 or more miles (16+ km)
Ceiling: at least 12,000 feet AGL
Clouds: few clouds at 5000 feet AGL
Weather: no significant weather observed at this time
Translated TAF for KLNK
Forecast for: KLNK (LINCOLN , NE, US)
TAF Text: KLNK 291406Z 2914/3012 18005KT P6SM BKN200 WS019/32043KT
Forecast period: 1400 to 1600 UTC 29 March 2015
Forecast type: FROM: standard forecast or significant change
Winds: from the S (180 degrees) at 6 MPH (5 knots; 2.6 m/s)
Visibility: 6 or more miles (10+ km)
Ceiling: 20000 feet AGL
Clouds: broken clouds at 20000 feet AGL
Wind shear: at 1900 feet ( 579 m) AGL, from the NW (320 degrees) at 49 MPH (43 knots; 22.4 m/s)
Weather: no significant weather forecast for this period
TAF Text: FM291600 33018G35KT P6SM BKN040
Forecast period: 1600 to 2300 UTC 29 March 2015
Forecast type: FROM: standard forecast or significant change
Winds: from the NNW (330 degrees) at 21 MPH (18 knots; 9.4 m/s)
gusting to 40 MPH (35 knots; 18.2 m/s)
Visibility: 6 or more miles (10+ km)
Ceiling: 4000 feet AGL
Clouds: broken clouds at 4000 feet AGL
Weather: no significant weather forecast for this period
TAF Text: FM292300 34012KT P6SM SKC
Forecast period: 2300 UTC 29 March 2015 to 0100 UTC 30 March 2015
Forecast type: FROM: standard forecast or significant change
Winds: from the NNW (340 degrees) at 14 MPH (12 knots; 6.2 m/s)
Visibility: 6 or more miles (10+ km)
Clouds: clear skies
Weather: no significant weather forecast for this period
TAF Text: FM300100 VRB05KT P6SM SKC
Forecast period: 0100 to 1200 UTC 30 March 2015
Forecast type: FROM: standard forecast or significant change
Winds: variable direction winds at 6 MPH (5 knots; 2.6 m/s)
Visibility: 6 or more miles (10+ km)
Clouds: clear skies
Weather: no significant weather forecast for this period

Find All Airport Services Find A Hotel Find A Rental Car Find A Golf Course Find A Restaurant $100 Hamburger



FBO's on the Field
FBO Company Facility Photos Services Transportation Aviation Fuel Prices: Prices include tax
Catering Weather Repair Courtesy Rental Type 100LL JetA JetA+ MOGAS 8087
 
Duncan Aviation

This FBO has not yet been rated
FS:Avfuel
Last Updated: Mar-25
Login to update fuel prices
SS:
Contact Duncan AviationMore FBO Information
 
Silverhawk Aviation

This FBO has not yet been rated
FS:Phillips 66
Last Updated: Mar-24
Login to update fuel prices
SS:
Contact Silverhawk AviationMore FBO Information
 
Add another FBO Facility Photos Catering Weather Repair Courtesy Rental Type 100LL JetA JetA+ MOGAS 8087
Services Transportation Aviation Fuel Prices: Prices include tax


model-print
model-print
model-print
model-print